createdAt,value
2018-07-07T00:02:34.000Z,23.517
2018-07-07T00:12:34.000Z,23.874
2018-07-07T00:22:34.000Z,23.948
2018-07-07T00:32:34.000Z,24.08
2018-07-07T00:42:35.000Z,24.565
2018-07-07T00:52:35.000Z,24.964
2018-07-07T01:02:35.000Z,25.283
2018-07-07T01:12:35.000Z,25.634
2018-07-07T01:22:35.000Z,26
2018-07-07T01:32:35.000Z,26.053
2018-07-07T01:42:35.000Z,26.571
2018-07-07T01:52:35.000Z,26.615
2018-07-07T02:02:35.000Z,26.747
2018-07-07T02:12:35.000Z,27.142
2018-07-07T02:22:35.000Z,27.53
2018-07-07T02:32:35.000Z,27.959
2018-07-07T02:42:35.000Z,28.444
2018-07-07T02:52:35.000Z,28.743
2018-07-07T03:02:35.000Z,28.998
2018-07-07T03:12:35.000Z,29.692
2018-07-07T03:22:35.000Z,29.889
2018-07-07T03:32:35.000Z,30.098
2018-07-07T03:42:35.000Z,30.351
2018-07-07T03:52:35.000Z,30.77
2018-07-07T04:02:35.000Z,31.086
2018-07-07T04:12:35.000Z,31.319
2018-07-07T04:22:35.000Z,31.682
2018-07-07T04:32:35.000Z,31.934
2018-07-07T04:42:35.000Z,32.133
2018-07-07T04:52:35.000Z,32.005
2018-07-07T05:02:35.000Z,32.36
2018-07-07T05:12:35.000Z,32.199
2018-07-07T05:22:35.000Z,32.597
2018-07-07T05:32:35.000Z,32.645
2018-07-07T05:42:35.000Z,32.872
2018-07-07T05:52:35.000Z,33.615
2018-07-07T06:02:35.000Z,34.298
2018-07-07T06:12:35.000Z,35.066
2018-07-07T06:22:35.000Z,36.091
2018-07-07T06:32:35.000Z,34.855
2018-07-07T06:42:35.000Z,34.158
2018-07-07T06:52:35.000Z,33.842
2018-07-07T07:02:35.000Z,34.063
2018-07-07T07:12:35.000Z,33.732
2018-07-07T07:22:35.000Z,34.029
2018-07-07T07:32:35.000Z,33.941
2018-07-07T07:42:35.000Z,33.958
2018-07-07T07:52:36.000Z,33.058
2018-07-07T08:02:35.000Z,32.302
2018-07-07T08:12:35.000Z,32.27
2018-07-07T08:22:35.000Z,31.523
2018-07-07T08:32:35.000Z,30.823
2018-07-07T08:42:35.000Z,30.407
2018-07-07T08:52:36.000Z,30.208
2018-07-07T09:02:36.000Z,29.704
2018-07-07T09:12:36.000Z,29.502
2018-07-07T09:22:36.000Z,28.436
2018-07-07T09:32:36.000Z,28.52
2018-07-07T09:42:36.000Z,27.949
2018-07-07T09:52:36.000Z,27.526
2018-07-07T10:02:36.000Z,27.803
2018-07-07T10:12:36.000Z,27.252
2018-07-07T10:22:36.000Z,27.699
2018-07-07T10:32:36.000Z,27.383
2018-07-07T10:42:36.000Z,26.974
2018-07-07T10:52:36.000Z,26.922
2018-07-07T11:02:36.000Z,25.956
2018-07-07T11:12:36.000Z,25.342
2018-07-07T11:22:36.000Z,25.629
2018-07-07T11:32:36.000Z,25.826
2018-07-07T11:42:36.000Z,25.383
2018-07-07T11:52:36.000Z,25.206
2018-07-07T12:02:36.000Z,25.119
2018-07-07T12:12:36.000Z,25.166
2018-07-07T12:22:36.000Z,24.645
2018-07-07T12:32:36.000Z,24.861
2018-07-07T12:42:36.000Z,25.065
2018-07-07T12:52:36.000Z,24.875
2018-07-07T13:02:36.000Z,25.037
2018-07-07T13:12:36.000Z,25.119
2018-07-07T13:22:36.000Z,25.115
2018-07-07T13:32:36.000Z,25.228
2018-07-07T13:42:36.000Z,25.512
2018-07-07T13:52:36.000Z,25.136
2018-07-07T14:02:36.000Z,25.363
2018-07-07T14:12:36.000Z,25.322
2018-07-07T14:22:36.000Z,25.443
2018-07-07T14:32:36.000Z,25.694
2018-07-07T14:42:36.000Z,25.53
2018-07-07T14:52:36.000Z,25.473
2018-07-07T15:02:36.000Z,25.615
2018-07-07T15:12:36.000Z,25.522
2018-07-07T15:22:36.000Z,25.707
2018-07-07T15:32:36.000Z,25.514
2018-07-07T15:42:36.000Z,25.827
2018-07-07T15:52:40.000Z,25.655
2018-07-07T16:02:36.000Z,25.958
2018-07-07T16:12:36.000Z,26.41
2018-07-07T16:22:36.000Z,26.4
2018-07-07T16:32:36.000Z,27.16
2018-07-07T16:42:36.000Z,26.745
2018-07-07T16:52:36.000Z,26.586
2018-07-07T17:02:37.000Z,26.699
2018-07-07T17:12:37.000Z,26.877
2018-07-07T17:22:37.000Z,26.933
2018-07-07T17:32:37.000Z,27.387
2018-07-07T17:42:37.000Z,27.722
2018-07-07T17:52:37.000Z,28.252
2018-07-07T18:02:39.000Z,28.236
2018-07-07T18:12:39.000Z,28.425
2018-07-07T18:22:39.000Z,28.352
2018-07-07T18:32:37.000Z,28.055
2018-07-07T18:42:37.000Z,27.996
2018-07-07T18:52:37.000Z,27.955
2018-07-07T19:02:37.000Z,27.916
2018-07-07T19:12:37.000Z,28.427
2018-07-07T19:22:37.000Z,29.023
2018-07-07T19:32:37.000Z,29.198
2018-07-07T19:42:37.000Z,29.093
2018-07-07T19:52:37.000Z,29.439
2018-07-07T20:02:37.000Z,29.898
2018-07-07T20:12:37.000Z,30.109
2018-07-07T20:22:37.000Z,30.781
2018-07-07T20:32:37.000Z,31.051
2018-07-07T20:42:37.000Z,30.939
2018-07-07T20:52:37.000Z,31.028
2018-07-07T21:02:37.000Z,30.403
2018-07-07T21:12:37.000Z,30.249
2018-07-07T21:22:37.000Z,30.132
2018-07-07T21:32:37.000Z,30.271
2018-07-07T21:42:37.000Z,30.622
2018-07-07T21:52:37.000Z,30.774
2018-07-07T22:02:37.000Z,31.222
2018-07-07T22:12:37.000Z,31.376
2018-07-07T22:32:37.000Z,31.671
2018-07-07T22:42:37.000Z,31.935
2018-07-07T22:52:37.000Z,32.087
2018-07-07T23:02:37.000Z,32.263
2018-07-07T23:12:37.000Z,32.559
2018-07-07T23:22:41.000Z,32.765
2018-07-07T23:32:37.000Z,32.863
2018-07-07T23:42:39.000Z,33.156
2018-07-07T23:52:37.000Z,33.296
